Wetterstation Vordersexau
Wetterdaten: April 2018
Datum Temp. A. Feuchte A. Luftdruck Regen Wind Richtung Taupunkt Windchill Windben
01.04.2018 6,0 C 82 % 1008,9 hPa 2,6 l/m 17,7 km/h SW 3,2 C 0,0 C 9,8 km/h
02.04.2018 8,5 C 70 % 1007,3 hPa 0,5 l/m 1,3 km/h NO 2,9 C 8,3 C 0,7 km/h
03.04.2018 15,2 C 57 % 1003,1 hPa 0,0 l/m 3,1 km/h W-SW 6,0 C 14,7 C 1,7 km/h
04.04.2018 12,8 C 71 % 1003,5 hPa 2,1 l/m 5,5 km/h S-SO 7,3 C 11,3 C 3,0 km/h
05.04.2018 10,6 C 71 % 1012,6 hPa 1,0 l/m 15,2 km/h SW 5,4 C 6,4 C 8,5 km/h
06.04.2018 10,8 C 67 % 1015,3 hPa 0,0 l/m 2,6 km/h W 4,2 C 10,4 C 1,5 km/h
07.04.2018 15,0 C 60 % 1009,5 hPa 0,0 l/m 0,3 km/h NO 5,9 C 15,0 C 0,2 km/h
08.04.2018 17,0 C 62 % 1004,2 hPa 0,0 l/m 1,2 km/h NO 8,8 C 16,9 C 0,7 km/h
09.04.2018 15,0 C 67 % 1001,8 hPa 0,5 l/m 4,5 km/h NO 8,6 C 14,3 C 2,5 km/h
10.04.2018 10,6 C 80 % 1002,1 hPa 1,0 l/m 3,9 km/h N-NO 7,1 C 9,6 C 2,2 km/h
11.04.2018 12,9 C 60 % 1001,5 hPa 0,0 l/m 3,7 km/h NO 4,5 C 12,4 C 2,0 km/h
12.04.2018 14,8 C 61 % 996,7 hPa 0,0 l/m 5,6 km/h W-SW 6,4 C 13,7 C 3,1 km/h
13.04.2018 12,4 C 70 % 1006,4 hPa 0,0 l/m 4,1 km/h O-NO 6,4 C 11,2 C 2,3 km/h
14.04.2018 13,6 C 66 % 1015,2 hPa 0,0 l/m 1,0 km/h O-NO 6,8 C 13,6 C 0,6 km/h
15.04.2018 15,9 C 68 % 1010,6 hPa 3,1 l/m 1,3 km/h N-NW 9,5 C 15,8 C 0,7 km/h
16.04.2018 16,2 C 67 % 1012,5 hPa 0,5 l/m 0,8 km/h SO 9,6 C 16,1 C 0,5 km/h
17.04.2018 17,3 C 62 % 1021,3 hPa 0,0 l/m 1,2 km/h O-NO 8,9 C 17,2 C 0,7 km/h
18.04.2018 19,4 C 52 % 1025,0 hPa 0,0 l/m 2,6 km/h NO 7,4 C 19,4 C 1,4 km/h
19.04.2018 18,4 C 55 % 1023,1 hPa 0,0 l/m 0,2 km/h O-NO 8,3 C 18,4 C 0,1 km/h
20.04.2018 19,5 C 53 % 1019,9 hPa 0,0 l/m 0,1 km/h NO 9,0 C 19,5 C 0,1 km/h
21.04.2018 20,1 C 55 % 1016,2 hPa 0,0 l/m 0,0 km/h O-NO 9,9 C 20,1 C 0,0 km/h
22.04.2018 20,5 C 54 % 1012,5 hPa 0,0 l/m 0,9 km/h NO 9,7 C 20,5 C 0,5 km/h
23.04.2018 15,8 C 75 % 1015,0 hPa 5,2 l/m 0,0 km/h NO 11,2 C 15,8 C 0,0 km/h
24.04.2018 17,0 C 67 % 1015,6 hPa 0,0 l/m 1,4 km/h NO 10,3 C 16,8 C 0,8 km/h
25.04.2018 16,7 C 66 % 1011,8 hPa 0,0 l/m 11,1 km/h NO 9,8 C 14,9 C 6,2 km/h
26.04.2018 12,6 C 67 % 1016,4 hPa 3,1 l/m 2,0 km/h N-NW 6,2 C 12,3 C 1,1 km/h
27.04.2018 13,9 C 60 % 1009,6 hPa 0,0 l/m 3,8 km/h NO 5,7 C 13,4 C 2,1 km/h
28.04.2018 14,3 C 68 % 1009,8 hPa 1,6 l/m 1,4 km/h N-NW 8,3 C 14,2 C 0,8 km/h
29.04.2018 15,3 C 77 % 1002,1 hPa 0,5 l/m 1,5 km/h W-SW 11,2 C 15,1 C 0,8 km/h
30.04.2018 14,4 C 56 % 1004,0 hPa 0,0 l/m 21,9 km/h S-SW 5,3 C 9,1 C 12,1 km/h
Min-Datum 02.04.18 18.04.18 12.04.18 12 Tage 01.04.18 - 02.04.18 01.04.18 01.04.18
Min-Zeit 06:53 15:53 04:53 - 00:53 - 06:53 09:53 00:53
Minimum -0,1 C 21 % 994,3 hPa - 0,0 km/h - -2,8 C -7,5 C 0,0 km/h
Max-Datum 18.04.18 01.04.18 18.04.18 23.04.18 10.04.18 - 16.04.18 18.04.18 10.04.18
Max-Zeit 16:53 03:53 08:53 12:53 13:53 - 09:53 16:53 13:53
Maximum 32,8 C 85 % 1026,5 hPa 5,2 l/m 55,1 km/h
N-NO
- 15,9 C 32,8 C 30,6 km/h
N-NO
Durchschnitt 14,7 C 65 % 1010,5 hPa #21,8 l/m 4,0 km/h NO 7,5 C 13,9 C 2,2 km/h

Durchschnitt Minimum Temp.7,3 C
Durchschnitt Maximum Temp.24,0 C
www.sexauwetter.de